KELY

Details ICAO KELY (ELY)
Name Ely Arpt Yelland Fld
Region United States
Timezone America/Los_Angeles (UTC-8.0)
Plans Departing 3
Arriving 7
Stats Elevation 6,259 ft / 1,908 m (AMSL)
Location 39.299585° -114.842354°
Runways 2
Magnetic Variation 12.144° E
Sunrise 2017-12-12 14:51:29 UTC / 2017-12-12 06:51:29 Local
Sunset 2017-12-13 00:17:52 UTC / 2017-12-12 16:17:52 Local
Advertisement - Login to hide

Runways

ID Width Length Bearing (true) Bearing (mag) Surface Threshold Offset Overrun Length
12 59 ft / 18 m 4,819 ft / 1,469 m 140.73° 128.59° Asphalt 0 ft / 0 m 0 ft / 0 m
18 151 ft / 46 m 6,024 ft / 1,836 m 193.76° 181.62° Asphalt 0 ft / 0 m 200 ft / 61 m
30 59 ft / 18 m 4,819 ft / 1,469 m 320.73° 308.59° Asphalt 0 ft / 0 m 0 ft / 0 m
36 151 ft / 46 m 6,024 ft / 1,836 m 13.76° 1.62° Asphalt 0 ft / 0 m 200 ft / 61 m

Map

Weather


0- 5 10 15 20 25 30 35+ Temperature / ° C

Clouds and Precipitation
Forecast for 2017-12-12 12:00 UTC. Updated an hour ago

Ground ~20,000 ft ~40,000 ft Winds

METAR

KELY 120953Z AUTO 17011KT 10SM CLR M12/M22 A3057 RMK AO2 SLP362 T11171217 $

TAF

TAF KELY 120520Z 1206/1306 17011KT P6SM FEW250 FM122100 36006KT P6SM SKC FM130100 17011KT P6SM SKC

Frequencies

Recorded 120.62 MHz ASOS
Unicom 122.80 MHz CTAF/UNICOM
Warning: Do not use this data for real-world aviation or navigation. No guarantee of current accuracy is given.